createdAt,value
2018-06-16T01:17:35.327Z,98038.00
2018-06-16T01:20:17.755Z,98034.00
2018-06-16T01:23:02.304Z,98033.00
2018-06-16T01:25:44.203Z,98032.00
2018-06-16T01:28:28.238Z,98022.00
2018-06-16T01:31:13.003Z,98023.00
2018-06-16T01:34:00.178Z,98025.00
2018-06-16T01:36:43.038Z,98026.00
2018-06-16T01:39:26.250Z,98024.00
2018-06-16T01:42:09.302Z,98020.00
2018-06-16T01:44:50.518Z,98014.00
2018-06-16T01:47:32.702Z,98012.00
2018-06-16T01:50:15.863Z,98013.00
2018-06-16T01:52:57.884Z,98009.00
2018-06-16T01:55:38.285Z,98009.00
2018-06-16T01:58:19.638Z,98012.00
2018-06-16T02:01:04.047Z,98010.00
2018-06-16T02:03:53.475Z,98008.00
2018-06-16T02:06:37.201Z,98008.00
2018-06-16T02:09:17.925Z,98011.00
2018-06-16T02:12:00.782Z,98006.00
2018-06-16T02:14:43.601Z,98008.00
2018-06-16T02:17:28.760Z,98006.00
2018-06-16T02:20:08.523Z,98010.00
2018-06-16T02:22:48.938Z,98008.00
2018-06-16T02:25:34.799Z,98006.00
2018-06-16T02:28:19.179Z,98007.00
2018-06-16T02:31:02.698Z,98001.00
2018-06-16T02:33:44.182Z,98003.00
2018-06-16T02:36:27.117Z,98003.00
2018-06-16T02:39:11.025Z,98001.00
2018-06-16T02:41:57.682Z,98006.00
2018-06-16T02:44:38.738Z,98007.00
2018-06-16T02:47:19.060Z,98013.00
2018-06-16T02:50:00.558Z,98013.00
2018-06-16T02:52:49.203Z,98014.00
2018-06-16T02:55:31.505Z,98014.00
2018-06-16T02:58:11.839Z,98016.00
2018-06-16T03:00:56.700Z,98012.00
2018-06-16T03:03:45.220Z,98006.00
2018-06-16T03:06:28.177Z,98008.00
2018-06-16T03:09:11.498Z,98006.00
2018-06-16T03:11:52.041Z,98006.00
2018-06-16T03:14:35.143Z,98002.00
2018-06-16T03:17:18.484Z,98004.00
2018-06-16T03:20:03.316Z,98011.00
2018-06-16T03:22:43.799Z,98007.00
2018-06-16T03:25:26.629Z,97997.00
2018-06-16T03:28:11.805Z,97999.00
2018-06-16T03:30:56.659Z,97999.00
2018-06-16T03:33:40.977Z,97995.00
2018-06-16T03:36:25.399Z,97993.00
2018-06-16T03:39:09.646Z,98000.00
2018-06-16T03:41:51.701Z,98001.00
2018-06-16T03:44:32.581Z,98002.00
2018-06-16T03:47:13.739Z,98002.00
2018-06-16T03:50:02.878Z,98004.00
2018-06-16T03:52:45.942Z,98005.00
2018-06-16T03:55:29.099Z,98006.00
2018-06-16T03:58:10.441Z,98008.00
2018-06-16T04:00:53.864Z,98010.00
2018-06-16T04:03:36.303Z,98015.00
2018-06-16T04:06:20.719Z,98016.00
2018-06-16T04:09:04.900Z,98009.00
2018-06-16T04:11:47.747Z,98006.00
2018-06-16T04:14:31.202Z,98009.00
2018-06-16T04:17:18.263Z,98008.00
2018-06-16T04:20:01.377Z,98004.00
2018-06-16T04:22:45.225Z,98004.00
2018-06-16T04:25:24.604Z,98002.00
2018-06-16T04:28:03.465Z,98006.00
2018-06-16T04:30:44.138Z,98013.00
2018-06-16T04:33:27.000Z,98016.00
2018-06-16T04:36:10.009Z,98020.00
2018-06-16T04:38:53.505Z,98013.00
2018-06-16T04:41:34.135Z,98016.00
2018-06-16T04:44:16.365Z,98017.00
2018-06-16T04:46:59.358Z,98020.00
2018-06-16T04:49:39.699Z,98019.00
2018-06-16T04:52:20.004Z,98019.00
2018-06-16T04:55:01.759Z,98024.00
2018-06-16T04:57:43.657Z,98021.00
2018-06-16T05:00:24.607Z,98025.00
2018-06-16T05:03:05.401Z,98023.00
2018-06-16T05:05:48.135Z,98019.00
2018-06-16T05:08:33.358Z,98023.00
2018-06-16T05:11:14.059Z,98028.00
2018-06-16T05:13:55.959Z,98030.00
2018-06-16T05:16:36.018Z,98030.00
2018-06-16T05:19:15.798Z,98031.00
2018-06-16T05:21:57.335Z,98030.00
2018-06-16T05:24:38.558Z,98028.00
2018-06-16T05:27:19.000Z,98028.00
2018-06-16T05:29:58.602Z,98028.00
2018-06-16T05:32:44.465Z,98029.00
2018-06-16T05:35:24.503Z,98027.00
2018-06-16T05:38:06.940Z,98030.00
2018-06-16T05:40:50.002Z,98027.00
2018-06-16T05:43:29.919Z,98025.00
2018-06-16T05:46:07.917Z,98025.00
2018-06-16T05:48:51.064Z,98026.00
2018-06-16T05:51:32.405Z,98026.00
2018-06-16T05:54:12.463Z,98025.00
2018-06-16T05:56:52.556Z,98017.00
2018-06-16T05:59:30.081Z,98020.00
2018-06-16T06:02:11.155Z,98018.00
2018-06-16T06:04:52.357Z,98023.00
2018-06-16T06:07:30.640Z,98020.00
2018-06-16T06:10:09.871Z,98023.00
2018-06-16T06:12:48.720Z,98026.00
2018-06-16T06:15:30.558Z,98028.00
2018-06-16T06:18:10.187Z,98026.00
2018-06-16T06:20:50.156Z,98020.00
2018-06-16T06:23:32.715Z,98021.00
2018-06-16T06:26:12.285Z,98022.00
2018-06-16T06:28:51.218Z,98021.00
2018-06-16T06:31:31.482Z,98021.00
2018-06-16T06:34:11.082Z,98015.00
2018-06-16T06:36:52.639Z,98014.00
2018-06-16T06:39:32.937Z,98009.00
2018-06-16T06:42:14.544Z,98012.00
2018-06-16T06:44:51.797Z,98013.00
2018-06-16T06:47:33.177Z,98007.00
2018-06-16T06:50:16.903Z,98011.00
2018-06-16T06:52:54.799Z,98008.00
2018-06-16T06:55:36.703Z,98011.00
2018-06-16T06:58:16.221Z,98009.00
2018-06-16T07:00:55.006Z,98006.00
2018-06-16T07:03:35.337Z,98002.00
2018-06-16T07:06:15.720Z,97997.00
2018-06-16T07:08:54.300Z,97993.00
2018-06-16T07:11:35.119Z,97984.00
2018-06-16T07:14:14.985Z,97975.00
2018-06-16T07:16:56.281Z,97976.00
2018-06-16T07:19:36.597Z,97975.00
2018-06-16T07:22:16.459Z,97971.00
2018-06-16T07:24:55.662Z,97968.00
2018-06-16T07:27:35.864Z,97957.00
2018-06-16T07:30:13.560Z,97958.00
2018-06-16T07:32:53.580Z,97950.00
2018-06-16T07:35:34.541Z,97948.00
2018-06-16T07:38:13.503Z,97947.00
2018-06-16T07:40:53.520Z,97945.00
2018-06-16T07:43:33.937Z,97943.00
2018-06-16T07:46:15.555Z,97945.00
2018-06-16T07:48:58.365Z,97946.00
2018-06-16T07:51:36.744Z,97941.00
2018-06-16T07:54:17.723Z,97941.00
2018-06-16T07:57:00.081Z,97943.00
2018-06-16T07:59:42.342Z,97937.00
2018-06-16T08:02:21.264Z,97932.00
2018-06-16T08:05:00.261Z,97937.00
2018-06-16T08:07:50.666Z,97930.00
2018-06-16T08:10:39.482Z,97923.00
2018-06-16T08:13:22.559Z,97930.00
2018-06-16T08:16:03.124Z,97933.00
2018-06-16T08:18:45.009Z,97931.00
2018-06-16T08:21:23.719Z,97932.00
2018-06-16T08:24:04.458Z,97922.00
2018-06-16T08:26:45.260Z,97924.00
2018-06-16T08:29:26.442Z,97922.00
2018-06-16T08:32:06.769Z,97924.00
2018-06-16T08:34:45.622Z,97925.00
2018-06-16T08:37:24.502Z,97923.00
2018-06-16T08:40:03.263Z,97921.00
2018-06-16T08:42:41.223Z,97919.00
2018-06-16T08:45:20.839Z,97920.00
2018-06-16T08:48:03.803Z,97918.00
2018-06-16T08:50:42.583Z,97921.00
2018-06-16T08:53:21.306Z,97920.00
2018-06-16T08:55:58.942Z,97915.00
2018-06-16T08:58:38.525Z,97915.00
2018-06-16T09:01:17.719Z,97916.00
2018-06-16T09:03:55.724Z,97917.00
2018-06-16T09:06:32.159Z,97919.00
2018-06-16T09:09:14.101Z,97927.00
2018-06-16T09:11:53.163Z,97921.00
2018-06-16T09:14:33.233Z,97925.00
2018-06-16T09:17:12.401Z,97931.00
2018-06-16T09:19:51.497Z,97933.00
2018-06-16T09:22:29.924Z,97934.00
2018-06-16T09:25:09.229Z,97932.00
2018-06-16T09:27:49.265Z,97933.00
2018-06-16T09:30:29.564Z,97939.00
2018-06-16T09:33:19.441Z,97935.00
2018-06-16T09:36:06.532Z,97935.00
2018-06-16T09:38:45.540Z,97931.00
2018-06-16T09:41:29.161Z,97933.00
2018-06-16T09:44:10.220Z,97930.00
2018-06-16T09:46:50.538Z,97928.00
2018-06-16T09:49:33.964Z,97926.00
2018-06-16T09:52:13.602Z,97927.00
2018-06-16T09:54:55.355Z,97927.00
2018-06-16T09:57:36.758Z,97925.00
2018-06-16T10:00:21.418Z,97923.00
2018-06-16T10:03:04.960Z,97920.00
2018-06-16T10:05:44.982Z,97924.00
2018-06-16T10:08:24.883Z,97925.00
2018-06-16T10:11:04.639Z,97923.00
2018-06-16T10:13:49.378Z,97924.00
2018-06-16T10:16:32.260Z,97915.00
2018-06-16T10:19:10.685Z,97910.00
2018-06-16T10:21:50.355Z,97911.00
2018-06-16T10:24:40.879Z,97895.00
2018-06-16T10:27:22.782Z,97893.00
2018-06-16T10:30:02.835Z,97890.00
2018-06-16T10:32:47.081Z,97888.00
2018-06-16T10:35:34.724Z,97888.00
2018-06-16T10:38:15.647Z,97885.00
2018-06-16T10:40:54.962Z,97878.00
2018-06-16T10:43:36.247Z,97873.00
2018-06-16T10:46:26.595Z,97867.00
2018-06-16T10:49:05.784Z,97872.00
2018-06-16T10:51:48.544Z,97870.00
2018-06-16T10:54:26.541Z,97879.00
2018-06-16T10:57:05.237Z,97879.00
2018-06-16T10:59:51.299Z,97882.00
2018-06-16T11:02:32.981Z,97882.00
2018-06-16T11:05:12.256Z,97884.00
2018-06-16T11:07:55.998Z,97886.00
2018-06-16T11:10:35.343Z,97873.00
2018-06-16T11:13:14.260Z,97872.00
2018-06-16T11:16:00.622Z,97871.00
2018-06-16T11:18:41.958Z,97869.00
2018-06-16T11:21:19.443Z,97868.00
2018-06-16T11:24:04.962Z,97867.00
2018-06-16T11:26:44.522Z,97862.00
2018-06-16T11:29:23.860Z,97859.00
2018-06-16T11:32:12.301Z,97860.00
2018-06-16T11:34:54.840Z,97854.00
2018-06-16T11:37:35.239Z,97851.00
2018-06-16T11:40:22.159Z,97850.00
2018-06-16T11:43:06.125Z,97850.00
2018-06-16T11:45:44.659Z,97845.00
2018-06-16T11:48:25.456Z,97844.00
2018-06-16T11:51:05.440Z,97846.00
2018-06-16T11:53:44.926Z,97838.00
2018-06-16T11:56:24.598Z,97836.00
2018-06-16T12:19:44.985Z,97812.00
2018-06-16T12:22:27.376Z,97806.00
2018-06-16T12:25:09.484Z,97795.00
2018-06-16T12:27:47.687Z,97792.00
2018-06-16T12:30:25.858Z,97792.00
2018-06-16T12:33:03.957Z,97787.00
2018-06-16T12:35:42.600Z,97791.00
2018-06-16T12:38:22.635Z,97785.00
2018-06-16T12:41:01.982Z,97784.00
2018-06-16T12:43:43.217Z,97787.00
2018-06-16T12:46:25.521Z,97786.00
2018-06-16T12:49:05.894Z,97782.00
2018-06-16T12:51:47.543Z,97784.00
2018-06-16T12:54:27.105Z,97783.00
2018-06-16T12:57:13.338Z,97774.00
2018-06-16T12:59:58.180Z,97773.00
2018-06-16T13:02:37.103Z,97772.00
2018-06-16T13:05:18.520Z,97769.00
2018-06-16T13:08:03.460Z,97766.00
2018-06-16T13:10:45.050Z,97766.00
2018-06-16T13:13:23.640Z,97762.00
2018-06-16T13:16:07.402Z,97763.00
2018-06-16T13:18:46.198Z,97755.00
2018-06-16T13:21:27.738Z,97757.00
2018-06-16T13:24:07.035Z,97761.00
2018-06-16T13:26:46.340Z,97763.00
2018-06-16T13:29:27.235Z,97760.00
2018-06-16T13:32:07.022Z,97756.00
2018-06-16T13:34:46.997Z,97761.00
2018-06-16T13:37:24.980Z,97760.00
2018-06-16T13:40:07.244Z,97758.00
2018-06-16T13:42:52.981Z,97748.00
2018-06-16T13:45:31.622Z,97741.00
2018-06-16T13:48:14.198Z,97742.00
2018-06-16T13:50:59.220Z,97742.00
2018-06-16T13:53:37.780Z,97742.00
2018-06-16T13:56:15.795Z,97732.00
2018-06-16T13:58:55.368Z,97734.00
2018-06-16T14:01:37.002Z,97734.00
2018-06-16T14:04:15.179Z,97735.00
2018-06-16T14:06:53.559Z,97733.00
2018-06-16T14:09:33.761Z,97732.00
2018-06-16T14:53:42.858Z,97723.00
2018-06-16T14:56:22.478Z,97720.00
2018-06-16T16:22:10.858Z,97698.00
2018-06-16T16:24:52.662Z,97696.00
2018-06-16T16:27:35.209Z,97695.00
2018-06-16T16:30:15.704Z,97696.00
2018-06-16T16:32:56.838Z,97701.00
2018-06-16T16:35:38.146Z,97703.00
2018-06-16T16:38:16.763Z,97704.00
2018-06-16T16:41:00.058Z,97719.00
2018-06-16T16:43:43.561Z,97718.00
2018-06-16T16:46:32.642Z,97714.00
2018-06-16T16:49:12.377Z,97718.00
2018-06-16T16:51:57.182Z,97714.00
2018-06-16T16:54:39.168Z,97718.00
2018-06-16T16:57:23.779Z,97721.00
2018-06-16T17:00:05.421Z,97718.00
2018-06-16T17:02:45.535Z,97715.00
2018-06-16T17:05:28.045Z,97720.00
2018-06-16T17:08:10.978Z,97715.00
2018-06-16T17:10:53.581Z,97716.00
2018-06-16T17:13:31.601Z,97715.00
2018-06-16T17:16:16.504Z,97716.00
2018-06-16T17:18:57.341Z,97715.00
2018-06-16T17:21:37.079Z,97719.00
2018-06-16T17:24:19.781Z,97721.00
2018-06-16T17:27:06.240Z,97726.00
2018-06-16T17:29:46.642Z,97726.00
2018-06-16T17:32:30.945Z,97728.00
2018-06-16T17:35:12.544Z,97734.00
2018-06-16T17:38:05.147Z,97733.00
2018-06-16T17:40:44.538Z,97734.00
2018-06-16T17:43:24.027Z,97733.00
2018-06-16T17:46:08.624Z,97738.00
2018-06-16T17:48:53.762Z,97739.00
2018-06-16T17:57:38.477Z,97741.00
2018-06-16T18:00:21.100Z,97741.00
2018-06-16T18:03:05.644Z,97737.00
2018-06-16T18:05:46.920Z,97739.00
2018-06-16T18:08:28.399Z,97746.00
2018-06-16T18:11:23.123Z,97745.00
2018-06-16T18:14:14.843Z,97746.00
2018-06-16T18:16:57.782Z,97748.00
2018-06-16T18:19:37.006Z,97750.00
2018-06-16T18:22:16.204Z,97751.00
2018-06-16T18:25:08.700Z,97751.00
2018-06-16T18:27:53.344Z,97747.00
2018-06-16T18:30:34.325Z,97749.00
2018-06-16T18:33:15.738Z,97755.00
2018-06-16T18:35:53.805Z,97750.00
2018-06-16T18:38:31.817Z,97753.00
2018-06-16T18:41:14.462Z,97756.00
2018-06-16T18:43:56.403Z,97756.00
2018-06-16T18:46:34.739Z,97758.00
2018-06-16T18:49:25.396Z,97762.00
2018-06-16T18:52:08.322Z,97762.00
2018-06-16T18:54:51.888Z,97763.00
2018-06-16T18:57:35.980Z,97767.00
2018-06-16T19:00:22.260Z,97766.00
2018-06-16T19:03:14.360Z,97768.00
2018-06-16T19:05:58.421Z,97778.00
2018-06-16T19:08:44.121Z,97779.00
2018-06-16T19:56:08.659Z,97825.00
2018-06-16T21:19:34.361Z,97852.00
2018-06-16T21:22:15.661Z,97853.00
2018-06-16T21:24:58.701Z,97848.00
2018-06-16T21:27:40.341Z,97850.00
2018-06-16T21:30:24.844Z,97855.00
2018-06-16T21:33:09.081Z,97856.00
2018-06-16T21:35:50.424Z,97860.00
2018-06-16T21:38:34.940Z,97860.00
2018-06-16T21:41:16.358Z,97853.00
2018-06-16T21:43:58.557Z,97853.00
2018-06-16T21:46:41.419Z,97856.00
2018-06-16T21:49:20.624Z,97862.00
2018-06-16T21:52:00.822Z,97858.00
2018-06-16T21:54:40.380Z,97861.00
2018-06-16T21:57:21.900Z,97859.00
2018-06-16T22:00:03.741Z,97853.00
2018-06-16T22:02:42.905Z,97853.00
2018-06-16T22:05:26.296Z,97852.00
2018-06-16T22:08:10.816Z,97855.00
2018-06-16T22:10:53.583Z,97856.00
2018-06-16T22:32:35.733Z,97877.00
2018-06-16T22:35:16.534Z,97887.00
2018-06-16T22:37:57.830Z,97887.00
2018-06-16T22:40:37.795Z,97891.00
2018-06-16T22:43:17.895Z,97888.00
2018-06-16T23:57:41.556Z,97871.00
